createdAt,value
2023-03-15T00:01:23.291Z,0.80
2023-03-15T00:06:22.203Z,0.77
2023-03-15T00:11:20.958Z,1.23
2023-03-15T00:16:19.914Z,1.23
2023-03-15T00:21:18.718Z,1.15
2023-03-15T00:26:18.113Z,0.93
2023-03-15T00:31:22.652Z,0.80
2023-03-15T00:36:24.376Z,1.27
2023-03-15T00:41:24.881Z,0.80
2023-03-15T00:46:23.707Z,0.82
2023-03-15T00:51:24.415Z,0.88
2023-03-15T00:56:26.683Z,1.33
2023-03-15T01:01:28.410Z,0.95
2023-03-15T01:06:29.326Z,1.25
2023-03-15T01:11:28.455Z,0.77
2023-03-15T01:16:28.720Z,0.77
2023-03-15T01:21:27.878Z,1.55
2023-03-15T01:26:26.887Z,1.42
2023-03-15T01:31:28.265Z,1.13
2023-03-15T01:36:27.431Z,1.00
2023-03-15T01:41:27.473Z,0.82
2023-03-15T01:46:34.656Z,1.00
2023-03-15T01:51:47.264Z,0.98
2023-03-15T01:56:59.511Z,1.00
2023-03-15T02:02:00.053Z,1.38
2023-03-15T02:07:02.429Z,1.30
2023-03-15T02:12:05.290Z,0.80
2023-03-15T02:17:04.198Z,1.17
2023-03-15T02:22:17.142Z,0.73
2023-03-15T02:27:32.401Z,1.08
2023-03-15T02:32:31.657Z,1.15
2023-03-15T02:37:30.862Z,1.20
2023-03-15T02:42:29.876Z,1.08
2023-03-15T02:47:33.905Z,1.15
2023-03-15T02:52:32.900Z,0.88
2023-03-15T02:57:34.639Z,0.93
2023-03-15T03:02:33.678Z,1.40
2023-03-15T03:07:33.726Z,0.90
2023-03-15T03:12:36.390Z,1.08
2023-03-15T03:17:37.519Z,1.67
2023-03-15T03:22:38.478Z,1.45
2023-03-15T03:27:39.413Z,1.08
2023-03-15T03:32:41.507Z,1.20
2023-03-15T03:37:40.308Z,2.17
2023-03-15T03:42:44.838Z,1.20
2023-03-15T03:47:43.915Z,1.33
2023-03-15T03:52:45.190Z,1.17
2023-03-15T03:57:52.614Z,1.60
2023-03-15T04:03:29.880Z,2.15
2023-03-15T04:08:42.113Z,1.40
2023-03-15T04:13:48.198Z,1.73
2023-03-15T04:18:47.209Z,1.23
2023-03-15T04:23:46.062Z,1.25
2023-03-15T04:29:04.369Z,1.55
2023-03-15T04:34:31.970Z,1.50
2023-03-15T04:40:07.198Z,1.65
2023-03-15T04:45:08.980Z,1.40
2023-03-15T04:50:29.308Z,1.90
2023-03-15T04:55:36.150Z,1.80
2023-03-15T05:00:47.118Z,1.85
2023-03-15T05:06:08.227Z,1.70
2023-03-15T05:11:58.916Z,2.47
2023-03-15T05:17:15.492Z,1.35
2023-03-15T05:22:43.615Z,2.03
2023-03-15T05:28:05.040Z,0.52
2023-03-15T05:33:22.158Z,3.10
2023-03-15T05:38:43.906Z,2.17
2023-03-15T05:44:04.478Z,1.40
2023-03-15T05:49:04.338Z,1.40
2023-03-15T05:54:20.501Z,1.67
2023-03-15T05:59:42.209Z,1.58
2023-03-15T06:04:43.947Z,2.50
2023-03-15T06:14:46.758Z,1.80
2023-03-15T06:19:49.057Z,1.85
2023-03-15T06:24:48.014Z,0.95
2023-03-15T06:29:46.903Z,0.90
2023-03-15T06:34:45.766Z,1.08
2023-03-15T06:39:46.622Z,0.70
2023-03-15T06:44:45.826Z,1.45
2023-03-15T06:49:57.434Z,1.10
2023-03-15T06:54:56.400Z,1.00
2023-03-15T06:59:55.515Z,1.05
2023-03-15T07:04:54.230Z,0.93
2023-03-15T07:09:55.197Z,1.02
2023-03-15T07:14:54.224Z,1.02
2023-03-15T07:19:56.594Z,0.75
2023-03-15T07:24:55.904Z,1.13
2023-03-15T07:29:55.639Z,0.73
2023-03-15T07:34:58.324Z,0.88
2023-03-15T07:39:58.664Z,1.40
2023-03-15T07:44:57.572Z,0.95
2023-03-15T07:49:56.810Z,1.88
2023-03-15T07:54:55.600Z,1.20
2023-03-15T07:59:54.402Z,0.95
2023-03-15T08:04:53.346Z,0.90
2023-03-15T08:09:52.138Z,0.75
2023-03-15T08:14:51.553Z,1.02
2023-03-15T08:19:50.332Z,1.13
2023-03-15T08:24:49.590Z,0.70
2023-03-15T08:29:48.501Z,0.60
2023-03-15T08:34:47.589Z,0.90
2023-03-15T08:39:46.468Z,0.80
2023-03-15T08:44:45.337Z,1.00
2023-03-15T08:49:44.089Z,0.80
2023-03-15T08:54:42.843Z,0.85
2023-03-15T08:59:41.819Z,1.25
2023-03-15T09:04:40.779Z,0.63
2023-03-15T09:09:39.702Z,0.77
2023-03-15T09:14:38.681Z,1.00
2023-03-15T09:19:37.651Z,1.00
2023-03-15T09:24:36.545Z,1.98
2023-03-15T09:29:35.407Z,1.20
2023-03-15T09:34:41.654Z,1.70
2023-03-15T09:39:41.244Z,1.20
2023-03-15T09:44:48.267Z,1.52
2023-03-15T09:50:34.005Z,2.10
2023-03-15T09:55:33.213Z,1.48
2023-03-15T10:00:40.071Z,1.42
2023-03-15T10:05:47.053Z,1.75
2023-03-15T10:10:53.587Z,1.15
2023-03-15T10:16:19.735Z,2.30
2023-03-15T10:21:39.451Z,1.00
2023-03-15T10:26:39.780Z,1.80
2023-03-15T10:31:44.897Z,1.42
2023-03-15T10:36:55.661Z,1.73
2023-03-15T10:41:54.829Z,1.10
2023-03-15T10:47:16.079Z,0.95
2023-03-15T10:52:50.436Z,1.88
2023-03-15T10:57:56.662Z,1.52
2023-03-15T11:03:15.274Z,2.00
2023-03-15T11:08:17.150Z,1.65
2023-03-15T11:13:42.608Z,1.45
2023-03-15T11:18:57.598Z,1.60
2023-03-15T11:23:58.390Z,1.17
2023-03-15T11:29:01.195Z,1.00
2023-03-15T11:34:06.508Z,1.30
2023-03-15T11:39:06.009Z,1.33
2023-03-15T11:44:11.126Z,1.30
2023-03-15T11:49:29.492Z,0.90
2023-03-15T11:54:32.371Z,1.60
2023-03-15T11:59:39.952Z,0.98
2023-03-15T12:04:44.096Z,0.93
2023-03-15T12:09:52.450Z,1.52
2023-03-15T12:15:14.727Z,1.10
2023-03-15T12:20:19.881Z,1.50
2023-03-15T12:25:26.047Z,0.90
2023-03-15T12:30:36.992Z,0.98
2023-03-15T12:35:41.201Z,1.17
2023-03-15T12:40:50.360Z,1.33
2023-03-15T12:45:49.381Z,1.17
2023-03-15T12:50:48.115Z,1.90
2023-03-15T12:55:47.658Z,1.42
2023-03-15T13:00:48.910Z,1.40
2023-03-15T13:06:04.785Z,1.30
2023-03-15T13:11:06.759Z,1.23
2023-03-15T13:16:15.659Z,1.30
2023-03-15T13:21:31.689Z,1.55
2023-03-15T13:26:36.541Z,1.73
2023-03-15T13:31:35.597Z,1.13
2023-03-15T13:36:42.774Z,1.00
2023-03-15T13:41:42.687Z,1.40
2023-03-15T13:46:41.590Z,1.55
2023-03-15T13:51:41.910Z,2.10
2023-03-15T13:56:49.681Z,1.42
2023-03-15T14:01:54.192Z,1.70
2023-03-15T14:07:08.858Z,1.65
2023-03-15T14:12:18.734Z,1.35
2023-03-15T14:17:28.853Z,0.82
2023-03-15T14:22:28.093Z,1.17
2023-03-15T14:27:28.368Z,1.02
2023-03-15T14:32:34.798Z,1.38
2023-03-15T14:37:39.777Z,1.50
2023-03-15T14:42:39.107Z,1.00
2023-03-15T14:47:55.510Z,0.90
2023-03-15T14:52:58.432Z,1.08
2023-03-15T14:57:57.395Z,1.20
2023-03-15T15:02:57.408Z,1.05
2023-03-15T15:08:09.718Z,1.10
2023-03-15T15:13:20.787Z,0.88
2023-03-15T15:18:19.906Z,0.93
2023-03-15T15:23:21.501Z,1.10
2023-03-15T15:28:33.194Z,1.30
2023-03-15T15:33:34.186Z,1.17
2023-03-15T15:38:38.953Z,1.05
2023-03-15T15:43:38.317Z,1.60
2023-03-15T15:48:37.265Z,0.90
2023-03-15T15:53:36.606Z,1.13
2023-03-15T15:58:35.423Z,0.73
2023-03-15T16:03:34.371Z,1.00
2023-03-15T16:08:38.871Z,1.02
2023-03-15T16:13:37.652Z,0.95
2023-03-15T16:18:36.545Z,0.80
2023-03-15T16:23:35.409Z,0.93
2023-03-15T16:28:34.367Z,1.17
2023-03-15T16:33:34.783Z,1.23
2023-03-15T16:38:33.533Z,1.05
2023-03-15T16:43:32.685Z,0.95
2023-03-15T16:48:31.457Z,1.33
2023-03-15T16:53:31.765Z,1.17
2023-03-15T16:58:31.831Z,1.55
2023-03-15T17:03:33.108Z,1.38
2023-03-15T17:08:32.943Z,1.20
2023-03-15T17:13:32.858Z,0.80
2023-03-15T17:18:33.457Z,1.10
2023-03-15T17:23:32.665Z,1.88
2023-03-15T17:28:31.553Z,2.10
2023-03-15T17:33:30.552Z,1.35
2023-03-15T17:38:33.850Z,2.25
2023-03-15T17:43:32.932Z,1.70
2023-03-15T17:48:31.857Z,2.38
2023-03-15T17:53:30.652Z,2.10
2023-03-15T17:58:29.569Z,2.10
2023-03-15T18:03:28.520Z,1.85
2023-03-15T18:08:27.356Z,1.30
2023-03-15T18:13:27.121Z,1.30
2023-03-15T18:18:26.773Z,1.30
2023-03-15T18:23:25.496Z,1.45
2023-03-15T18:28:24.343Z,0.90
2023-03-15T18:33:23.091Z,1.23
2023-03-15T18:38:22.039Z,1.40
2023-03-15T18:43:20.936Z,1.88
2023-03-15T18:48:27.826Z,1.77
2023-03-15T18:53:33.148Z,1.65
2023-03-15T18:58:32.312Z,1.70
2023-03-15T19:03:31.082Z,1.40
2023-03-15T19:08:29.975Z,1.70
2023-03-15T19:13:28.913Z,1.45
2023-03-15T19:18:28.752Z,1.58
2023-03-15T19:23:27.706Z,1.55
2023-03-15T19:28:26.505Z,1.77
2023-03-15T19:33:25.291Z,1.52
2023-03-15T19:38:24.192Z,2.30
2023-03-15T19:43:23.754Z,1.98
2023-03-15T19:48:22.577Z,2.13
2023-03-15T19:53:21.310Z,2.30
2023-03-15T19:58:20.208Z,2.90
2023-03-15T20:03:18.953Z,2.67
2023-03-15T20:08:17.716Z,2.80
2023-03-15T20:13:16.587Z,2.08
2023-03-15T20:18:16.245Z,2.70
2023-03-15T20:23:15.115Z,2.30
2023-03-15T20:28:13.868Z,2.30
2023-03-15T20:33:12.634Z,2.97
2023-03-15T20:38:13.392Z,2.47
2023-03-15T20:43:12.551Z,2.35
2023-03-15T20:48:11.462Z,2.67
2023-03-15T20:53:10.378Z,2.97
2023-03-15T20:58:09.175Z,2.95
2023-03-15T21:03:10.973Z,5.78
2023-03-15T21:08:10.319Z,4.00
2023-03-15T21:13:10.321Z,2.63
2023-03-15T21:18:09.101Z,3.55
2023-03-15T21:23:08.040Z,3.50
2023-03-15T21:28:07.239Z,3.28
2023-03-15T21:33:06.055Z,3.00
2023-03-15T21:38:04.818Z,5.20
2023-03-15T21:43:03.702Z,4.03
2023-03-15T21:48:03.468Z,3.45
2023-03-15T21:53:03.122Z,3.20
2023-03-15T21:58:02.453Z,4.25
2023-03-15T22:03:01.620Z,3.22
2023-03-15T22:08:00.906Z,3.08
2023-03-15T22:12:59.766Z,3.30
2023-03-15T22:18:00.019Z,3.17
2023-03-15T22:22:58.752Z,2.95
2023-03-15T22:27:57.823Z,3.55
2023-03-15T22:32:56.625Z,3.60
2023-03-15T22:37:56.516Z,3.00
2023-03-15T22:42:57.236Z,4.18
2023-03-15T22:47:56.526Z,3.22
2023-03-15T22:52:55.577Z,3.30
2023-03-15T22:57:54.312Z,3.10
2023-03-15T23:02:53.105Z,2.90
2023-03-15T23:07:52.033Z,2.38
2023-03-15T23:12:51.250Z,2.40
2023-03-15T23:17:50.154Z,3.38
2023-03-15T23:22:49.462Z,2.42
2023-03-15T23:27:49.285Z,3.30
2023-03-15T23:32:49.832Z,2.72
2023-03-15T23:37:48.589Z,3.15
2023-03-15T23:42:47.807Z,2.70
2023-03-15T23:47:46.602Z,2.95
2023-03-15T23:52:45.519Z,3.28
2023-03-15T23:57:44.262Z,2.83
